• Join FlightAware (Why Join?)
  • Login
  • US Flag 
12:43AM EDT


 

Airport Tracker/Info


-or-


 

Live Flight TrackerFlight Track Log ✈ PDT4314 ✈ 08-Sep-2013 ✈ KBGM - KPHL

Flight Track Log - Related Links

Times and Time Zones

All times are in EDT time to prevent confusion due to time zone crossing. See the PDT4314 flight status page for this flight to view local times or setup timezone preferences in your user account.

Time Position Orientation Groundspeed Altitude Reporting Facility
EDT Latitude Longitude Course Direction KTS MPH feet Rate Location/Type
06:59PM 41.9924 -75.9090 180° South  Level Estimated
07:00PM 41.9370 -75.9146 184° South  Level FlightAware Approximate
07:01PM 41.8830 -75.8964 154° Southeast  Level Estimated
07:02PM 41.8291 -75.8783 160° South  Level Estimated
07:03PM 41.7736 -75.8750 177° South  Level FlightAware Approximate
07:04PM 41.7197 -75.8565 159° South  Level Estimated
07:05PM 41.6652 -75.8424 169° South  Level FlightAware Approximate
07:06PM 41.6114 -75.8239 153° Southeast  Level Estimated
07:07PM 41.5575 -75.8053 161° South  Level Estimated
07:08PM 41.5045 -75.7830 162° South  Level FlightAware Approximate
07:09PM 41.4515 -75.7607 163° South  Level FlightAware Approximate
07:10PM 41.3985 -75.7385 163° South  Level FlightAware Approximate
07:11PM 41.3446 -75.7205 162° South  Level Estimated
07:12PM 41.2919 -75.6969 161° South  Level FlightAware Approximate
07:13PM 41.2392 -75.6733 161° South  Level FlightAware Approximate
07:14PM 41.1865 -75.6497 161° South  Level FlightAware Approximate
07:15PM 41.1338 -75.6262 161° South  Level FlightAware Approximate
07:16PM 41.0797 -75.6094 163° South  Level Estimated
07:17PM 41.0270 -75.5861 162° South  Level FlightAware Approximate
07:18PM 40.9743 -75.5629 162° South  Level FlightAware Approximate
07:19PM 40.9215 -75.5397 162° South  Level FlightAware Approximate
07:19PM 40.7333 -75.5333 187° South 267 307 7,300  Level Philadelphia TRACON
07:20PM 40.8688 -75.5165 162° South  Level FlightAware Approximate
07:20PM 40.7000 -75.5333 180° South 271 312 7,000  Level Philadelphia TRACON
07:21PM 40.8144 -75.5013 190° South  Level Estimated
07:21PM 40.6333 -75.5333 180° South 272 313 6,200  Level Philadelphia TRACON
07:22PM 40.7588 -75.5010 180° South  Level FlightAware Approximate
07:22PM 40.5500 -75.5500 189° South 266 306 5,400  Level Philadelphia TRACON
07:23PM 40.7032 -75.5008 180° South  Level FlightAware Approximate
07:23PM 40.4833 -75.5500 180° South 266 306 5,000  Level Philadelphia TRACON
07:24PM 40.6476 -75.5006 180° South  Level FlightAware Approximate
07:24PM 40.4167 -75.5333 169° South 254 292 4,900  Level Philadelphia TRACON
07:25PM 40.5938 -75.4824 187° South  Level Estimated
07:25PM 40.3500 -75.4667 143° Southeast 252 290 5,000  Level Philadelphia TRACON
07:26PM 40.3000 -75.4167 143° Southeast 251 289 5,000 -60 Level Philadelphia TRACON
07:27PM 40.2500 -75.3500 134° Southeast 251 289 4,900 -420 Descending Philadelphia TRACON
07:28PM 40.2000 -75.3000 143° Southeast 260 299 4,200 -540 Descending Philadelphia TRACON
07:29PM 40.1333 -75.2333 143° Southeast 260 299 3,900 -180 Descending Philadelphia TRACON
07:30PM 40.0833 -75.2000 153° Southeast 244 281 3,900  Level Philadelphia TRACON
07:31PM 40.0000 -75.1833 171° South 246 283 3,900  Level Philadelphia TRACON
07:32PM 39.9333 -75.1667 169° South 243 280 4,000 -60 Climbing Philadelphia TRACON
07:33PM 39.8667 -75.1333 159° South 243 280 3,800 -900 Descending Philadelphia TRACON
07:34PM 39.8000 -75.1333 180° South 238 274 2,200 -1,260 Descending Philadelphia TRACON
07:35PM 39.8000 -75.2000 270° West 165 190 1,300 -780 Descending Philadelphia TRACON
07:36PM 39.8333 -75.2167 339° North 114 131 700 -120 Descending Philadelphia TRACON
07:37PM 39.8667 -75.2333 339° North 98 113 1,100 960 Climbing Philadelphia TRACON
07:38PM 39.9000 -75.2333 360° North 148 170 2,700 960 Climbing Philadelphia TRACON
07:39PM 39.9333 -75.2500 339° North 190 219 3,000 120 Climbing Philadelphia TRACON
07:40PM 39.9833 -75.2000 37° Northeast 237 273 3,000  Level Philadelphia TRACON
07:41PM 39.9833 -75.1167 90° East 236 272 3,000  Level Philadelphia TRACON
07:42PM 39.9833 -75.0333 90° East 244 281 3,000 -60 Level Philadelphia TRACON
07:43PM 39.9333 -75.0333 180° South 210 242 2,900 -600 Descending Philadelphia TRACON
07:44PM 39.9167 -75.1000 252° West 171 197 1,900 -900 Descending Philadelphia TRACON
07:45PM 39.9000 -75.1500 247° West 136 157 1,100 -720 Descending Philadelphia TRACON
07:46PM 39.8833 -75.1833 237° Southwest 113 130 500 -600 Descending Philadelphia TRACON